createdAt,value
2023-09-14T00:01:40.286Z,100006.25
2023-09-14T00:04:42.311Z,100046.75
2023-09-14T00:07:44.270Z,100038.94
2023-09-14T00:10:46.147Z,100039.06
2023-09-14T00:13:48.030Z,100031.44
2023-09-14T00:16:50.008Z,100037.66
2023-09-14T00:19:51.911Z,100036.06
2023-09-14T00:22:56.347Z,100028.34
2023-09-14T00:25:58.316Z,100031.56
2023-09-14T00:29:00.346Z,100028.16
2023-09-14T00:32:02.290Z,100028.16
2023-09-14T00:35:04.369Z,100020.88
2023-09-14T00:38:06.568Z,100006.47
2023-09-14T00:41:08.761Z,100027.00
2023-09-14T00:44:10.628Z,100012.34
2023-09-14T00:47:12.595Z,100028.69
2023-09-14T00:50:18.901Z,100016.72
2023-09-14T00:53:21.616Z,100038.63
2023-09-14T00:56:24.519Z,100037.78
2023-09-14T00:59:27.521Z,100023.66
2023-09-14T01:02:29.451Z,100020.25
2023-09-14T01:05:32.724Z,100021.31
2023-09-14T01:08:35.588Z,100023.41
2023-09-14T01:11:37.621Z,100030.88
2023-09-14T01:14:50.212Z,100036.44
2023-09-14T01:18:20.891Z,100026.00
2023-09-14T01:21:31.997Z,100031.31
2023-09-14T01:24:42.064Z,100019.03
2023-09-14T01:27:45.454Z,100009.81
2023-09-14T01:30:47.396Z,100023.78
2023-09-14T01:33:50.204Z,100032.84
2023-09-14T01:37:01.018Z,100020.13
2023-09-14T01:40:10.254Z,100035.94
2023-09-14T01:43:13.814Z,100033.16
2023-09-14T01:46:16.212Z,100012.53
2023-09-14T01:49:18.353Z,100010.38
2023-09-14T01:52:20.427Z,100029.28
2023-09-14T01:55:22.312Z,100016.94
2023-09-14T01:58:24.370Z,100004.19
2023-09-14T02:01:27.049Z,100008.69
2023-09-14T02:04:29.096Z,100010.06
2023-09-14T02:07:30.983Z,100009.03
2023-09-14T02:10:32.849Z,100009.31
2023-09-14T02:13:36.104Z,100001.06
2023-09-14T02:16:37.966Z,100013.91
2023-09-14T02:19:39.856Z,100012.19
2023-09-14T02:22:41.755Z,99994.13
2023-09-14T02:25:44.585Z,100005.03
2023-09-14T02:28:46.561Z,100020.09
2023-09-14T02:31:48.968Z,100013.91
2023-09-14T02:34:51.035Z,99949.69
2023-09-14T02:37:53.048Z,100011.84
2023-09-14T02:40:54.922Z,100020.44
2023-09-14T02:43:57.518Z,99942.69
2023-09-14T02:46:59.913Z,100041.53
2023-09-14T02:50:02.036Z,100022.97
2023-09-14T02:53:04.133Z,100033.47
2023-09-14T02:56:10.877Z,100028.53
2023-09-14T02:59:16.567Z,100036.78
2023-09-14T03:02:18.589Z,100040.09
2023-09-14T03:05:20.802Z,100021.53
2023-09-14T03:08:22.787Z,100031.91
2023-09-14T03:11:25.121Z,100031.16
2023-09-14T03:14:27.387Z,100019.72
2023-09-14T03:17:29.393Z,100016.66
2023-09-14T03:20:31.404Z,100017.41
2023-09-14T03:23:33.404Z,100020.28
2023-09-14T03:26:35.428Z,100028.69
2023-09-14T03:29:37.373Z,100042.44
2023-09-14T03:32:39.497Z,100051.38
2023-09-14T03:35:44.545Z,100048.06
2023-09-14T03:38:47.036Z,100046.28
2023-09-14T03:41:50.444Z,100043.38
2023-09-14T03:44:52.416Z,100021.13
2023-09-14T03:47:56.778Z,100048.72
2023-09-14T03:51:00.873Z,100046.38
2023-09-14T03:54:02.771Z,100028.75
2023-09-14T03:57:05.331Z,100050.03
2023-09-14T04:00:12.321Z,100043.19
2023-09-14T04:03:21.484Z,100055.19
2023-09-14T04:06:23.579Z,100048.75
2023-09-14T04:09:26.968Z,100046.97
2023-09-14T04:12:28.855Z,100037.09
2023-09-14T04:15:32.732Z,100042.53
2023-09-14T04:18:36.742Z,100051.63
2023-09-14T04:21:38.997Z,99994.16
2023-09-14T04:24:41.143Z,100041.25
2023-09-14T04:27:42.981Z,100031.16
2023-09-14T04:30:48.483Z,100054.56
2023-09-14T04:33:50.820Z,100043.47
2023-09-14T04:36:52.819Z,100050.19
2023-09-14T04:39:54.819Z,100044.22
2023-09-14T04:42:56.756Z,100051.66
2023-09-14T04:45:58.721Z,100062.13
2023-09-14T04:49:01.592Z,100057.06
2023-09-14T04:52:04.619Z,100069.22
2023-09-14T04:55:07.131Z,100028.34
2023-09-14T04:58:09.093Z,100065.41
2023-09-14T05:01:11.167Z,100078.94
2023-09-14T05:04:16.320Z,100083.19
2023-09-14T05:07:18.393Z,100086.41
2023-09-14T05:10:20.412Z,100082.78
2023-09-14T05:13:22.519Z,100089.13
2023-09-14T05:16:24.582Z,100083.66
2023-09-14T05:19:26.782Z,100089.44
2023-09-14T05:22:29.496Z,100095.44
2023-09-14T05:25:31.909Z,100088.19
2023-09-14T05:28:33.813Z,100092.66
2023-09-14T05:31:36.197Z,100075.78
2023-09-14T05:34:38.605Z,100078.81
2023-09-14T05:37:40.556Z,100083.19
2023-09-14T05:40:42.552Z,100070.69
2023-09-14T05:43:44.433Z,100071.56
2023-09-14T05:46:46.591Z,100087.78
2023-09-14T05:49:48.917Z,100067.03
2023-09-14T05:52:51.650Z,100102.53
2023-09-14T05:55:56.150Z,100086.72
2023-09-14T05:58:58.427Z,100081.97
2023-09-14T06:02:01.916Z,100081.84
2023-09-14T06:05:21.072Z,100090.50
2023-09-14T06:08:25.914Z,100074.63
2023-09-14T06:11:28.923Z,100081.34
2023-09-14T06:14:31.020Z,100073.88
2023-09-14T06:17:32.887Z,100062.56
2023-09-14T06:20:35.075Z,100071.25
2023-09-14T06:23:36.949Z,100067.28
2023-09-14T06:26:39.580Z,100094.44
2023-09-14T06:29:41.427Z,100097.56
2023-09-14T06:32:46.437Z,100058.31
2023-09-14T06:35:48.416Z,100084.19
2023-09-14T06:38:50.251Z,100090.78
2023-09-14T06:41:52.167Z,100102.00
2023-09-14T06:44:54.127Z,100015.91
2023-09-14T06:47:55.972Z,100107.19
2023-09-14T06:50:58.036Z,100101.72
2023-09-14T06:53:59.864Z,100099.06
2023-09-14T06:57:01.788Z,100109.97
2023-09-14T07:00:09.470Z,100108.59
2023-09-14T07:03:11.485Z,100112.63
2023-09-14T07:06:13.486Z,100117.63
2023-09-14T07:09:15.417Z,100075.38
2023-09-14T07:12:18.477Z,100108.47
2023-09-14T07:15:20.298Z,100115.66
2023-09-14T07:18:30.945Z,100113.94
2023-09-14T07:21:38.802Z,100129.03
2023-09-14T07:24:40.787Z,100133.28
2023-09-14T07:27:42.874Z,100136.59
2023-09-14T07:30:44.771Z,100118.13
2023-09-14T07:33:47.248Z,100111.97
2023-09-14T07:36:49.365Z,100132.28
2023-09-14T07:39:51.333Z,100140.94
2023-09-14T07:42:53.225Z,100146.78
2023-09-14T07:45:56.969Z,100151.34
2023-09-14T07:48:59.053Z,100094.91
2023-09-14T07:52:01.042Z,100142.38
2023-09-14T07:55:05.560Z,100149.28
2023-09-14T07:58:07.920Z,100146.38
2023-09-14T08:01:10.098Z,100134.13
2023-09-14T08:04:12.377Z,100106.47
2023-09-14T08:07:16.117Z,100143.03
2023-09-14T08:10:18.114Z,100142.72
2023-09-14T08:13:21.014Z,100142.72
2023-09-14T08:16:24.704Z,100134.13
2023-09-14T08:19:26.704Z,100127.72
2023-09-14T08:22:28.818Z,100125.47
2023-09-14T08:25:30.717Z,100104.97
2023-09-14T08:28:32.698Z,100024.06
2023-09-14T08:31:34.661Z,100150.03
2023-09-14T08:34:36.600Z,100152.88
2023-09-14T08:37:38.533Z,100142.31
2023-09-14T08:40:42.681Z,100149.59
2023-09-14T08:43:46.718Z,100149.41
2023-09-14T08:46:50.006Z,100153.94
2023-09-14T08:49:54.347Z,100167.16
2023-09-14T08:52:56.559Z,100163.25
2023-09-14T08:55:58.549Z,100162.16
2023-09-14T08:59:03.305Z,100160.59
2023-09-14T09:02:08.868Z,100144.88
2023-09-14T09:05:12.797Z,100148.28
2023-09-14T09:08:16.960Z,100143.06
2023-09-14T09:11:18.982Z,100134.75
2023-09-14T09:14:20.840Z,100142.81
2023-09-14T09:17:22.819Z,100111.13
2023-09-14T09:20:24.901Z,100140.66
2023-09-14T09:23:27.103Z,100120.34
2023-09-14T09:26:41.574Z,100133.28
2023-09-14T09:29:45.314Z,100098.88
2023-09-14T09:32:56.398Z,100145.97
2023-09-14T09:35:59.777Z,100147.53
2023-09-14T09:39:06.114Z,100163.00
2023-09-14T09:42:09.655Z,100117.63
2023-09-14T09:45:12.499Z,100165.66
2023-09-14T09:48:15.317Z,100171.72
2023-09-14T09:51:23.304Z,100156.44
2023-09-14T09:54:26.139Z,100159.78
2023-09-14T09:57:32.833Z,100162.91
2023-09-14T10:00:38.044Z,100163.38
2023-09-14T10:03:40.290Z,100171.53
2023-09-14T10:06:45.177Z,100163.50
2023-09-14T10:09:47.603Z,100163.31
2023-09-14T10:12:49.775Z,100177.97
2023-09-14T10:15:56.733Z,100169.41
2023-09-14T10:18:59.523Z,100161.50
2023-09-14T10:22:01.835Z,100172.31
2023-09-14T10:25:06.038Z,100167.06
2023-09-14T10:28:08.885Z,100180.13
2023-09-14T10:31:12.529Z,100183.97
2023-09-14T10:34:15.902Z,100176.63
2023-09-14T10:37:20.585Z,100186.81
2023-09-14T10:40:22.936Z,100205.84
2023-09-14T10:43:25.156Z,100194.72
2023-09-14T10:46:35.165Z,100199.44
2023-09-14T10:49:38.044Z,100163.91
2023-09-14T10:52:41.715Z,100187.66
2023-09-14T10:55:43.771Z,100204.91
2023-09-14T10:58:46.252Z,100201.78
2023-09-14T11:05:17.097Z,100241.81
2023-09-14T11:08:21.202Z,100210.38
2023-09-14T11:11:39.718Z,100147.81
2023-09-14T11:15:16.859Z,100153.22
2023-09-14T11:18:19.263Z,100188.06
2023-09-14T11:21:34.714Z,100227.25
2023-09-14T11:24:39.648Z,100240.19
2023-09-14T11:27:43.844Z,100229.38
2023-09-14T11:30:50.156Z,100223.84
2023-09-14T11:33:55.848Z,100210.13
2023-09-14T11:37:06.933Z,100222.75
2023-09-14T11:40:20.699Z,100203.50
2023-09-14T11:43:44.411Z,100188.75
2023-09-14T11:46:52.657Z,100188.47
2023-09-14T11:49:58.913Z,100144.19
2023-09-14T11:53:01.782Z,100195.84
2023-09-14T11:56:04.440Z,100209.66
2023-09-14T11:59:06.320Z,100210.91
2023-09-14T12:02:09.764Z,100198.28
2023-09-14T12:05:11.649Z,100232.97
2023-09-14T12:08:15.557Z,100239.91
2023-09-14T12:11:17.729Z,100240.97
2023-09-14T12:14:19.569Z,100232.19
2023-09-14T12:17:26.490Z,100206.63
2023-09-14T12:20:29.563Z,100197.56
2023-09-14T12:23:33.686Z,100187.22
2023-09-14T12:26:35.958Z,100208.66
2023-09-14T12:29:38.107Z,100183.63
2023-09-14T12:32:40.757Z,100180.00
2023-09-14T12:35:43.662Z,100190.16
2023-09-14T12:38:48.398Z,100170.03
2023-09-14T12:41:53.673Z,100169.09
2023-09-14T12:44:55.748Z,100167.03
2023-09-14T12:47:57.876Z,100179.88
2023-09-14T12:51:04.343Z,100173.69
2023-09-14T12:54:06.482Z,100171.78
2023-09-14T12:57:16.057Z,100161.63
2023-09-14T13:00:21.271Z,100164.50
2023-09-14T13:03:23.589Z,100165.53
2023-09-14T13:06:26.008Z,100172.31
2023-09-14T13:09:27.998Z,100167.56
2023-09-14T13:12:30.100Z,100172.34
2023-09-14T13:15:33.057Z,100173.75
2023-09-14T13:18:34.983Z,100143.41
2023-09-14T13:21:37.095Z,100171.09
2023-09-14T13:24:39.144Z,100165.94
2023-09-14T13:27:43.978Z,100158.69
2023-09-14T13:30:47.116Z,100114.53
2023-09-14T13:33:49.070Z,100161.41
2023-09-14T13:36:54.061Z,100163.09
2023-09-14T13:39:57.092Z,100164.81
2023-09-14T13:43:00.578Z,100170.16
2023-09-14T13:46:03.397Z,100172.09
2023-09-14T13:49:05.948Z,100178.59
2023-09-14T13:52:07.811Z,100182.34
2023-09-14T13:55:11.245Z,100187.03
2023-09-14T13:58:13.364Z,100183.63
2023-09-14T14:01:15.420Z,100188.94
2023-09-14T14:04:17.326Z,100192.19
2023-09-14T14:07:19.748Z,100185.50
2023-09-14T14:10:21.536Z,100183.75
2023-09-14T14:13:23.434Z,100182.09
2023-09-14T14:16:25.312Z,100182.28
2023-09-14T14:19:27.347Z,100150.97
2023-09-14T14:22:29.861Z,100152.38
2023-09-14T14:25:31.860Z,100185.47
2023-09-14T14:28:33.688Z,100186.53
2023-09-14T14:31:35.951Z,100174.59
2023-09-14T14:34:38.376Z,100182.19
2023-09-14T14:37:40.337Z,100175.56
2023-09-14T14:41:16.978Z,100169.59
2023-09-14T14:44:04.288Z,100191.88
2023-09-14T14:47:06.391Z,100196.72
2023-09-14T14:50:08.736Z,100196.66
2023-09-14T14:53:11.681Z,100219.88
2023-09-14T14:56:13.540Z,100220.47
2023-09-14T14:59:15.340Z,100217.81
2023-09-14T15:02:17.197Z,100227.91
2023-09-14T15:05:19.291Z,100231.84
2023-09-14T15:08:21.371Z,100211.00
2023-09-14T15:11:23.542Z,100231.56
2023-09-14T15:14:25.490Z,100232.09
2023-09-14T15:17:27.867Z,100238.72
2023-09-14T15:20:29.933Z,100239.34
2023-09-14T15:23:31.878Z,100234.56
2023-09-14T15:26:33.787Z,100247.63
2023-09-14T15:29:36.454Z,100170.16
2023-09-14T15:32:43.012Z,100189.28
2023-09-14T15:35:44.877Z,100267.72
2023-09-14T15:38:46.997Z,100199.78
2023-09-14T15:41:51.620Z,100249.97
2023-09-14T15:44:53.513Z,100249.72
2023-09-14T15:47:56.694Z,100239.50
2023-09-14T15:50:59.008Z,100254.13
2023-09-14T15:54:00.895Z,100249.72
2023-09-14T15:57:03.196Z,100198.94
2023-09-14T16:00:05.617Z,100254.03
2023-09-14T16:03:13.075Z,100234.13
2023-09-14T16:06:17.434Z,100256.91
2023-09-14T16:09:19.412Z,100252.09
2023-09-14T16:12:21.325Z,100244.50
2023-09-14T16:15:23.253Z,100240.09
2023-09-14T16:18:25.218Z,100248.22
2023-09-14T16:21:27.195Z,100196.50
2023-09-14T16:24:29.135Z,100250.78
2023-09-14T16:27:31.110Z,100243.00
2023-09-14T16:30:34.564Z,100260.94
2023-09-14T16:33:36.438Z,100258.47
2023-09-14T16:36:39.624Z,100258.66
2023-09-14T16:39:41.613Z,100255.63
2023-09-14T16:42:43.793Z,100267.13
2023-09-14T16:45:46.758Z,100265.47
2023-09-14T16:48:50.412Z,100268.97
2023-09-14T16:51:53.665Z,100278.19
2023-09-14T16:54:58.699Z,100273.97
2023-09-14T16:58:00.900Z,100281.06
2023-09-14T17:01:02.919Z,100271.09
2023-09-14T17:04:08.329Z,100275.06
2023-09-14T17:07:11.182Z,100262.56
2023-09-14T17:10:13.224Z,100221.53
2023-09-14T17:13:17.915Z,100270.56
2023-09-14T17:16:19.961Z,100274.22
2023-09-14T17:19:22.805Z,100268.44
2023-09-14T17:22:26.745Z,100276.63
2023-09-14T17:25:28.655Z,100288.91
2023-09-14T17:28:30.538Z,100288.81
2023-09-14T17:31:32.431Z,100294.06
2023-09-14T17:34:35.375Z,100294.06
2023-09-14T17:37:37.868Z,100294.06
2023-09-14T17:40:39.749Z,100297.69
2023-09-14T17:43:41.865Z,100308.38
2023-09-14T17:46:43.983Z,100269.91
2023-09-14T17:49:45.838Z,100310.28
2023-09-14T17:52:47.841Z,100303.25
2023-09-14T17:55:53.888Z,100318.22
2023-09-14T17:58:55.765Z,100320.03
2023-09-14T18:01:59.431Z,100316.03
2023-09-14T18:05:01.454Z,100320.13
2023-09-14T18:08:04.795Z,100325.56
2023-09-14T18:11:06.662Z,100323.75
2023-09-14T18:14:08.508Z,100328.53
2023-09-14T18:17:10.393Z,100292.00
2023-09-14T18:20:12.882Z,100333.22
2023-09-14T18:23:14.747Z,100322.84
2023-09-14T18:26:16.709Z,100336.94
2023-09-14T18:29:18.864Z,100324.94
2023-09-14T18:32:20.729Z,100321.53
2023-09-14T18:35:22.929Z,100341.63
2023-09-14T18:38:25.805Z,100324.31
2023-09-14T18:41:30.028Z,100334.59
2023-09-14T18:44:32.157Z,100341.81
2023-09-14T18:47:36.616Z,100345.47
2023-09-14T18:50:39.178Z,100350.81
2023-09-14T18:53:43.203Z,100338.59
2023-09-14T18:56:45.038Z,100363.00
2023-09-14T18:59:47.007Z,100357.19
2023-09-14T19:02:49.022Z,100358.03
2023-09-14T19:05:54.027Z,100361.31
2023-09-14T19:08:57.340Z,100365.13
2023-09-14T19:11:59.373Z,100296.50
2023-09-14T19:15:01.343Z,100365.31
2023-09-14T19:18:05.561Z,100370.47
2023-09-14T19:21:09.351Z,100330.56
2023-09-14T19:24:11.234Z,100339.22
2023-09-14T19:27:13.165Z,100377.06
2023-09-14T19:30:15.544Z,100393.38
2023-09-14T19:33:17.488Z,100395.91
2023-09-14T19:36:24.215Z,100391.44
2023-09-14T19:39:26.042Z,100392.19
2023-09-14T19:42:27.906Z,100390.69
2023-09-14T19:45:29.867Z,100393.38
2023-09-14T19:48:31.897Z,100368.00
2023-09-14T19:51:33.910Z,100376.97
2023-09-14T19:54:36.172Z,100392.56
2023-09-14T19:57:38.445Z,100399.56
2023-09-14T20:00:41.349Z,100391.16
2023-09-14T20:03:44.900Z,100394.13
2023-09-14T20:06:46.858Z,100404.44
2023-09-14T20:09:49.231Z,100400.63
2023-09-14T20:12:51.234Z,100383.06
2023-09-14T20:15:53.456Z,100409.38
2023-09-14T20:18:55.584Z,100405.66
2023-09-14T20:21:57.716Z,100392.19
2023-09-14T20:24:59.757Z,100347.66
2023-09-14T20:28:01.792Z,100364.00
2023-09-14T20:31:04.778Z,100407.28
2023-09-14T20:34:07.277Z,100408.03
2023-09-14T20:37:09.449Z,100412.53
2023-09-14T20:40:18.834Z,100368.16
2023-09-14T20:43:20.671Z,100405.56
2023-09-14T20:46:25.955Z,100419.03
2023-09-14T20:49:29.745Z,100416.56
2023-09-14T20:52:31.615Z,100336.09
2023-09-14T20:55:34.794Z,100420.25
2023-09-14T20:58:37.332Z,100416.66
2023-09-14T21:01:39.498Z,100414.53
2023-09-14T21:04:41.517Z,100418.44
2023-09-14T21:07:43.748Z,100437.13
2023-09-14T21:10:45.613Z,100423.09
2023-09-14T21:13:47.471Z,100427.50
2023-09-14T21:16:51.905Z,100428.16
2023-09-14T21:19:57.036Z,100417.78
2023-09-14T21:22:59.104Z,100404.78
2023-09-14T21:26:01.103Z,100426.25
2023-09-14T21:29:02.999Z,100408.44
2023-09-14T21:32:05.135Z,100428.91
2023-09-14T21:35:07.861Z,100415.19
2023-09-14T21:38:09.938Z,100414.72
2023-09-14T21:41:11.775Z,100421.31
2023-09-14T21:44:13.537Z,100421.00
2023-09-14T21:47:15.880Z,100405.78
2023-09-14T21:50:17.976Z,100421.56
2023-09-14T21:53:22.065Z,100423.13
2023-09-14T21:56:24.236Z,100420.25
2023-09-14T21:59:26.175Z,100403.84
2023-09-14T22:02:32.097Z,100431.69
2023-09-14T22:05:37.678Z,100362.50
2023-09-14T22:08:39.558Z,100378.78
2023-09-14T22:11:41.539Z,100424.44
2023-09-14T22:14:43.392Z,100426.16
2023-09-14T22:17:45.527Z,100414.16
2023-09-14T22:20:47.312Z,100441.16
2023-09-14T22:23:49.214Z,100438.25
2023-09-14T22:26:51.506Z,100446.28
2023-09-14T22:29:54.584Z,100445.25
2023-09-14T22:32:56.852Z,100444.78
2023-09-14T22:35:58.799Z,100449.94
2023-09-14T22:39:00.565Z,100457.84
2023-09-14T22:42:02.432Z,100388.59
2023-09-14T22:45:07.267Z,100393.00
2023-09-14T22:48:09.140Z,100443.50
2023-09-14T22:51:14.814Z,100443.72
2023-09-14T22:54:16.755Z,100446.41
2023-09-14T22:57:18.560Z,100438.78
2023-09-14T23:00:20.596Z,100436.28
2023-09-14T23:03:22.494Z,100447.34
2023-09-14T23:06:24.962Z,100389.94
2023-09-14T23:09:26.926Z,100449.06
2023-09-14T23:12:29.427Z,100443.03
2023-09-14T23:15:31.400Z,100454.00
2023-09-14T23:18:33.510Z,100458.50
2023-09-14T23:21:35.411Z,100456.88
2023-09-14T23:24:38.713Z,100451.25
2023-09-14T23:27:46.769Z,100455.56
2023-09-14T23:30:50.056Z,100465.25
2023-09-14T23:33:52.042Z,100470.81
2023-09-14T23:36:53.989Z,100467.38
2023-09-14T23:39:58.028Z,100465.66
2023-09-14T23:43:01.383Z,100463.28
2023-09-14T23:46:04.988Z,100468.34
2023-09-14T23:49:09.500Z,100457.38
2023-09-14T23:52:11.754Z,100464.88
2023-09-14T23:55:14.786Z,100461.44
2023-09-14T23:58:17.589Z,100468.53
